sensor_id;sensor_type;location;lat;lon;timestamp;P1;durP1;ratioP1;P2;durP2;ratioP2
24637;SDS011;12773;50.162;8.548;2023-07-29T00:01:17;9.73;;;6.25;;
24637;SDS011;12773;50.162;8.548;2023-07-29T00:04:04;7.83;;;6.45;;
24637;SDS011;12773;50.162;8.548;2023-07-29T00:06:51;7.83;;;6.35;;
24637;SDS011;12773;50.162;8.548;2023-07-29T00:09:39;9.25;;;6.37;;
24637;SDS011;12773;50.162;8.548;2023-07-29T00:12:26;10.15;;;6.80;;
24637;SDS011;12773;50.162;8.548;2023-07-29T00:15:14;11.43;;;8.08;;
24637;SDS011;12773;50.162;8.548;2023-07-29T00:18:01;14.35;;;8.20;;
24637;SDS011;12773;50.162;8.548;2023-07-29T00:20:48;10.98;;;8.08;;
24637;SDS011;12773;50.162;8.548;2023-07-29T00:23:35;12.00;;;8.50;;
24637;SDS011;12773;50.162;8.548;2023-07-29T00:26:23;11.50;;;9.63;;
24637;SDS011;12773;50.162;8.548;2023-07-29T00:29:11;11.18;;;9.70;;
24637;SDS011;12773;50.162;8.548;2023-07-29T00:31:58;14.55;;;12.33;;
24637;SDS011;12773;50.162;8.548;2023-07-29T00:34:46;17.32;;;11.95;;
24637;SDS011;12773;50.162;8.548;2023-07-29T00:37:33;15.88;;;11.73;;
24637;SDS011;12773;50.162;8.548;2023-07-29T00:40:21;13.83;;;11.38;;
24637;SDS011;12773;50.162;8.548;2023-07-29T00:43:09;17.90;;;12.65;;
24637;SDS011;12773;50.162;8.548;2023-07-29T00:45:56;16.25;;;12.30;;
24637;SDS011;12773;50.162;8.548;2023-07-29T00:48:44;18.77;;;11.20;;
24637;SDS011;12773;50.162;8.548;2023-07-29T00:51:32;16.80;;;11.93;;
24637;SDS011;12773;50.162;8.548;2023-07-29T00:54:19;14.28;;;10.60;;
24637;SDS011;12773;50.162;8.548;2023-07-29T00:57:08;16.50;;;12.05;;
24637;SDS011;12773;50.162;8.548;2023-07-29T00:59:56;16.30;;;12.05;;
24637;SDS011;12773;50.162;8.548;2023-07-29T01:02:44;14.95;;;11.18;;
24637;SDS011;12773;50.162;8.548;2023-07-29T01:05:35;17.50;;;12.43;;
24637;SDS011;12773;50.162;8.548;2023-07-29T01:08:27;17.92;;;13.08;;
24637;SDS011;12773;50.162;8.548;2023-07-29T01:11:19;22.10;;;14.98;;
24637;SDS011;12773;50.162;8.548;2023-07-29T01:14:29;18.67;;;14.30;;
24637;SDS011;12773;50.162;8.548;2023-07-29T01:17:33;20.55;;;14.78;;
24637;SDS011;12773;50.162;8.548;2023-07-29T01:20:23;19.20;;;13.90;;
24637;SDS011;12773;50.162;8.548;2023-07-29T01:23:12;18.42;;;13.85;;
24637;SDS011;12773;50.162;8.548;2023-07-29T01:26:00;19.30;;;13.32;;
24637;SDS011;12773;50.162;8.548;2023-07-29T01:28:48;15.35;;;12.63;;
24637;SDS011;12773;50.162;8.548;2023-07-29T01:31:38;14.90;;;11.88;;
24637;SDS011;12773;50.162;8.548;2023-07-29T01:34:29;14.23;;;11.15;;
24637;SDS011;12773;50.162;8.548;2023-07-29T01:37:19;14.20;;;11.25;;
24637;SDS011;12773;50.162;8.548;2023-07-29T01:40:09;11.80;;;10.28;;
24637;SDS011;12773;50.162;8.548;2023-07-29T01:42:57;14.25;;;10.03;;
24637;SDS011;12773;50.162;8.548;2023-07-29T01:45:45;15.00;;;10.93;;
24637;SDS011;12773;50.162;8.548;2023-07-29T01:48:32;14.10;;;11.00;;
24637;SDS011;12773;50.162;8.548;2023-07-29T01:51:19;13.25;;;10.23;;
24637;SDS011;12773;50.162;8.548;2023-07-29T01:54:07;16.50;;;10.58;;
24637;SDS011;12773;50.162;8.548;2023-07-29T01:56:54;14.85;;;10.65;;
24637;SDS011;12773;50.162;8.548;2023-07-29T01:59:42;13.00;;;11.15;;
24637;SDS011;12773;50.162;8.548;2023-07-29T02:02:29;13.58;;;10.40;;
24637;SDS011;12773;50.162;8.548;2023-07-29T02:05:16;13.43;;;10.72;;
24637;SDS011;12773;50.162;8.548;2023-07-29T02:08:04;13.98;;;10.85;;
24637;SDS011;12773;50.162;8.548;2023-07-29T02:10:51;14.60;;;10.70;;
24637;SDS011;12773;50.162;8.548;2023-07-29T02:13:38;12.75;;;10.10;;
24637;SDS011;12773;50.162;8.548;2023-07-29T02:16:26;13.30;;;10.48;;
24637;SDS011;12773;50.162;8.548;2023-07-29T02:19:13;15.40;;;9.68;;
24637;SDS011;12773;50.162;8.548;2023-07-29T02:22:00;17.37;;;10.93;;
24637;SDS011;12773;50.162;8.548;2023-07-29T02:24:48;17.27;;;11.20;;
24637;SDS011;12773;50.162;8.548;2023-07-29T02:27:35;13.13;;;10.53;;
24637;SDS011;12773;50.162;8.548;2023-07-29T02:30:22;15.85;;;11.35;;
24637;SDS011;12773;50.162;8.548;2023-07-29T02:33:10;15.08;;;12.37;;
24637;SDS011;12773;50.162;8.548;2023-07-29T02:35:57;14.63;;;10.85;;
24637;SDS011;12773;50.162;8.548;2023-07-29T02:38:45;15.03;;;10.70;;
24637;SDS011;12773;50.162;8.548;2023-07-29T02:41:32;16.55;;;11.05;;
24637;SDS011;12773;50.162;8.548;2023-07-29T02:44:20;14.93;;;11.05;;
24637;SDS011;12773;50.162;8.548;2023-07-29T02:47:07;15.43;;;11.10;;
24637;SDS011;12773;50.162;8.548;2023-07-29T02:49:55;18.27;;;12.13;;
24637;SDS011;12773;50.162;8.548;2023-07-29T02:52:42;22.00;;;12.88;;
24637;SDS011;12773;50.162;8.548;2023-07-29T02:55:30;20.15;;;12.85;;
24637;SDS011;12773;50.162;8.548;2023-07-29T02:58:17;23.30;;;13.05;;
24637;SDS011;12773;50.162;8.548;2023-07-29T03:01:05;22.85;;;13.28;;
24637;SDS011;12773;50.162;8.548;2023-07-29T03:03:53;21.75;;;13.28;;
24637;SDS011;12773;50.162;8.548;2023-07-29T03:06:40;23.15;;;14.23;;
24637;SDS011;12773;50.162;8.548;2023-07-29T03:09:28;23.80;;;13.35;;
24637;SDS011;12773;50.162;8.548;2023-07-29T03:12:16;25.90;;;13.45;;
24637;SDS011;12773;50.162;8.548;2023-07-29T03:15:03;26.87;;;13.58;;
24637;SDS011;12773;50.162;8.548;2023-07-29T03:17:51;24.82;;;13.15;;
24637;SDS011;12773;50.162;8.548;2023-07-29T03:20:39;25.68;;;13.78;;
24637;SDS011;12773;50.162;8.548;2023-07-29T03:23:27;24.05;;;13.20;;
24637;SDS011;12773;50.162;8.548;2023-07-29T03:26:15;22.07;;;13.40;;
24637;SDS011;12773;50.162;8.548;2023-07-29T03:29:02;25.10;;;14.30;;
24637;SDS011;12773;50.162;8.548;2023-07-29T03:31:50;26.25;;;14.40;;
24637;SDS011;12773;50.162;8.548;2023-07-29T03:34:37;23.32;;;13.90;;
24637;SDS011;12773;50.162;8.548;2023-07-29T03:37:25;22.15;;;13.50;;
24637;SDS011;12773;50.162;8.548;2023-07-29T03:40:13;26.95;;;13.55;;
24637;SDS011;12773;50.162;8.548;2023-07-29T03:43:00;17.27;;;12.20;;
24637;SDS011;12773;50.162;8.548;2023-07-29T03:45:48;20.00;;;11.83;;
24637;SDS011;12773;50.162;8.548;2023-07-29T03:48:35;19.75;;;12.05;;
24637;SDS011;12773;50.162;8.548;2023-07-29T03:51:23;18.42;;;12.28;;
24637;SDS011;12773;50.162;8.548;2023-07-29T03:54:10;19.65;;;12.25;;
24637;SDS011;12773;50.162;8.548;2023-07-29T03:56:58;20.90;;;11.60;;
24637;SDS011;12773;50.162;8.548;2023-07-29T03:59:45;20.30;;;12.05;;
24637;SDS011;12773;50.162;8.548;2023-07-29T04:02:32;19.42;;;10.98;;
24637;SDS011;12773;50.162;8.548;2023-07-29T04:05:21;17.65;;;11.08;;
24637;SDS011;12773;50.162;8.548;2023-07-29T04:08:08;15.15;;;11.78;;
24637;SDS011;12773;50.162;8.548;2023-07-29T04:10:56;18.40;;;11.60;;
24637;SDS011;12773;50.162;8.548;2023-07-29T04:13:43;19.60;;;12.10;;
24637;SDS011;12773;50.162;8.548;2023-07-29T04:16:31;15.93;;;12.03;;
24637;SDS011;12773;50.162;8.548;2023-07-29T04:19:19;17.80;;;12.15;;
24637;SDS011;12773;50.162;8.548;2023-07-29T04:22:07;18.48;;;11.35;;
24637;SDS011;12773;50.162;8.548;2023-07-29T04:25:05;13.88;;;10.48;;
24637;SDS011;12773;50.162;8.548;2023-07-29T04:27:53;16.45;;;11.08;;
24637;SDS011;12773;50.162;8.548;2023-07-29T04:30:42;15.25;;;10.10;;
24637;SDS011;12773;50.162;8.548;2023-07-29T04:33:30;16.23;;;10.08;;
24637;SDS011;12773;50.162;8.548;2023-07-29T04:36:18;14.40;;;9.83;;
24637;SDS011;12773;50.162;8.548;2023-07-29T04:39:06;14.93;;;10.50;;
24637;SDS011;12773;50.162;8.548;2023-07-29T04:41:53;12.90;;;9.68;;
24637;SDS011;12773;50.162;8.548;2023-07-29T04:44:40;13.90;;;9.25;;
24637;SDS011;12773;50.162;8.548;2023-07-29T04:47:31;10.90;;;9.03;;
24637;SDS011;12773;50.162;8.548;2023-07-29T04:50:18;14.43;;;10.08;;
24637;SDS011;12773;50.162;8.548;2023-07-29T04:53:05;13.43;;;9.70;;
24637;SDS011;12773;50.162;8.548;2023-07-29T04:55:53;15.32;;;9.60;;
24637;SDS011;12773;50.162;8.548;2023-07-29T04:58:40;14.15;;;9.50;;
24637;SDS011;12773;50.162;8.548;2023-07-29T05:01:28;12.28;;;9.15;;
24637;SDS011;12773;50.162;8.548;2023-07-29T05:04:15;12.63;;;10.00;;
24637;SDS011;12773;50.162;8.548;2023-07-29T05:07:03;13.88;;;9.90;;
24637;SDS011;12773;50.162;8.548;2023-07-29T05:09:50;14.10;;;9.80;;
24637;SDS011;12773;50.162;8.548;2023-07-29T05:12:38;15.93;;;10.05;;
24637;SDS011;12773;50.162;8.548;2023-07-29T05:15:25;12.70;;;10.13;;
24637;SDS011;12773;50.162;8.548;2023-07-29T05:18:13;13.38;;;9.58;;
24637;SDS011;12773;50.162;8.548;2023-07-29T05:21:00;14.03;;;10.45;;
24637;SDS011;12773;50.162;8.548;2023-07-29T05:23:47;15.28;;;9.48;;
24637;SDS011;12773;50.162;8.548;2023-07-29T05:26:35;14.47;;;9.98;;
24637;SDS011;12773;50.162;8.548;2023-07-29T05:29:22;13.28;;;9.78;;
24637;SDS011;12773;50.162;8.548;2023-07-29T05:32:10;12.55;;;10.50;;
24637;SDS011;12773;50.162;8.548;2023-07-29T05:34:57;18.17;;;10.03;;
24637;SDS011;12773;50.162;8.548;2023-07-29T05:37:44;15.10;;;9.60;;
24637;SDS011;12773;50.162;8.548;2023-07-29T05:40:32;14.00;;;10.55;;
24637;SDS011;12773;50.162;8.548;2023-07-29T05:43:19;13.75;;;10.53;;
24637;SDS011;12773;50.162;8.548;2023-07-29T05:46:06;13.65;;;10.68;;
24637;SDS011;12773;50.162;8.548;2023-07-29T05:48:54;15.28;;;10.70;;
24637;SDS011;12773;50.162;8.548;2023-07-29T05:51:41;16.23;;;10.82;;
24637;SDS011;12773;50.162;8.548;2023-07-29T05:54:29;12.53;;;10.15;;
24637;SDS011;12773;50.162;8.548;2023-07-29T05:57:16;16.02;;;10.65;;
24637;SDS011;12773;50.162;8.548;2023-07-29T06:00:03;12.65;;;9.88;;
24637;SDS011;12773;50.162;8.548;2023-07-29T06:02:51;13.70;;;10.20;;
24637;SDS011;12773;50.162;8.548;2023-07-29T06:05:39;12.80;;;10.20;;
24637;SDS011;12773;50.162;8.548;2023-07-29T06:08:26;14.73;;;9.98;;
24637;SDS011;12773;50.162;8.548;2023-07-29T06:11:14;12.23;;;9.48;;
24637;SDS011;12773;50.162;8.548;2023-07-29T06:14:02;12.37;;;9.70;;
24637;SDS011;12773;50.162;8.548;2023-07-29T06:16:49;12.33;;;9.08;;
24637;SDS011;12773;50.162;8.548;2023-07-29T06:19:36;15.28;;;9.70;;
24637;SDS011;12773;50.162;8.548;2023-07-29T06:22:24;13.32;;;9.85;;
24637;SDS011;12773;50.162;8.548;2023-07-29T06:25:11;13.32;;;10.23;;
24637;SDS011;12773;50.162;8.548;2023-07-29T06:27:59;11.90;;;9.08;;
24637;SDS011;12773;50.162;8.548;2023-07-29T06:30:46;14.15;;;9.65;;
24637;SDS011;12773;50.162;8.548;2023-07-29T06:33:33;13.18;;;10.23;;
24637;SDS011;12773;50.162;8.548;2023-07-29T06:36:21;16.48;;;9.63;;
24637;SDS011;12773;50.162;8.548;2023-07-29T06:39:08;11.45;;;9.33;;
24637;SDS011;12773;50.162;8.548;2023-07-29T06:41:56;13.90;;;9.15;;
24637;SDS011;12773;50.162;8.548;2023-07-29T06:44:43;14.30;;;10.25;;
24637;SDS011;12773;50.162;8.548;2023-07-29T06:47:31;13.28;;;9.78;;
24637;SDS011;12773;50.162;8.548;2023-07-29T06:50:19;11.95;;;10.20;;
24637;SDS011;12773;50.162;8.548;2023-07-29T06:53:06;12.88;;;9.80;;
24637;SDS011;12773;50.162;8.548;2023-07-29T06:55:53;14.98;;;9.73;;
24637;SDS011;12773;50.162;8.548;2023-07-29T06:58:41;12.30;;;9.35;;
24637;SDS011;12773;50.162;8.548;2023-07-29T07:01:28;12.73;;;9.15;;
24637;SDS011;12773;50.162;8.548;2023-07-29T07:04:15;10.88;;;8.88;;
24637;SDS011;12773;50.162;8.548;2023-07-29T07:07:03;11.38;;;8.23;;
24637;SDS011;12773;50.162;8.548;2023-07-29T07:09:51;11.08;;;7.95;;
24637;SDS011;12773;50.162;8.548;2023-07-29T07:12:40;10.50;;;8.18;;
24637;SDS011;12773;50.162;8.548;2023-07-29T07:15:27;13.53;;;8.08;;
24637;SDS011;12773;50.162;8.548;2023-07-29T07:18:14;8.85;;;7.37;;
24637;SDS011;12773;50.162;8.548;2023-07-29T07:21:01;8.35;;;7.25;;
24637;SDS011;12773;50.162;8.548;2023-07-29T07:23:49;8.05;;;6.80;;
24637;SDS011;12773;50.162;8.548;2023-07-29T07:26:37;8.35;;;6.80;;
24637;SDS011;12773;50.162;8.548;2023-07-29T07:29:24;7.95;;;6.78;;
24637;SDS011;12773;50.162;8.548;2023-07-29T07:32:12;8.35;;;6.33;;
24637;SDS011;12773;50.162;8.548;2023-07-29T07:34:59;8.65;;;6.17;;
24637;SDS011;12773;50.162;8.548;2023-07-29T07:37:47;7.90;;;6.17;;
24637;SDS011;12773;50.162;8.548;2023-07-29T07:40:34;9.38;;;5.72;;
24637;SDS011;12773;50.162;8.548;2023-07-29T07:43:22;7.37;;;5.53;;
24637;SDS011;12773;50.162;8.548;2023-07-29T07:46:10;9.28;;;5.60;;
24637;SDS011;12773;50.162;8.548;2023-07-29T07:48:57;7.50;;;5.10;;
24637;SDS011;12773;50.162;8.548;2023-07-29T07:51:44;6.00;;;4.83;;
24637;SDS011;12773;50.162;8.548;2023-07-29T07:54:31;6.10;;;4.50;;
24637;SDS011;12773;50.162;8.548;2023-07-29T07:57:20;5.20;;;4.67;;
24637;SDS011;12773;50.162;8.548;2023-07-29T08:00:08;5.05;;;4.55;;
24637;SDS011;12773;50.162;8.548;2023-07-29T08:02:56;6.53;;;4.65;;
24637;SDS011;12773;50.162;8.548;2023-07-29T08:05:43;5.78;;;4.65;;
24637;SDS011;12773;50.162;8.548;2023-07-29T08:08:31;5.58;;;4.33;;
24637;SDS011;12773;50.162;8.548;2023-07-29T08:11:18;4.87;;;4.28;;
24637;SDS011;12773;50.162;8.548;2023-07-29T08:14:06;6.92;;;3.92;;
24637;SDS011;12773;50.162;8.548;2023-07-29T08:16:53;4.55;;;3.85;;
24637;SDS011;12773;50.162;8.548;2023-07-29T08:19:41;4.75;;;4.25;;
24637;SDS011;12773;50.162;8.548;2023-07-29T08:22:28;7.22;;;3.90;;
24637;SDS011;12773;50.162;8.548;2023-07-29T08:25:15;6.37;;;4.50;;
24637;SDS011;12773;50.162;8.548;2023-07-29T08:28:02;6.53;;;4.08;;
24637;SDS011;12773;50.162;8.548;2023-07-29T08:30:50;5.45;;;3.80;;
24637;SDS011;12773;50.162;8.548;2023-07-29T08:33:38;8.18;;;4.33;;
24637;SDS011;12773;50.162;8.548;2023-07-29T08:36:26;8.48;;;3.87;;
24637;SDS011;12773;50.162;8.548;2023-07-29T08:39:14;5.08;;;3.70;;
24637;SDS011;12773;50.162;8.548;2023-07-29T08:42:03;4.85;;;3.55;;
24637;SDS011;12773;50.162;8.548;2023-07-29T08:44:52;4.12;;;2.98;;
24637;SDS011;12773;50.162;8.548;2023-07-29T08:47:42;5.35;;;3.30;;
24637;SDS011;12773;50.162;8.548;2023-07-29T08:50:29;3.37;;;3.08;;
24637;SDS011;12773;50.162;8.548;2023-07-29T08:53:19;3.83;;;2.50;;
24637;SDS011;12773;50.162;8.548;2023-07-29T08:56:07;3.00;;;2.65;;
24637;SDS011;12773;50.162;8.548;2023-07-29T08:58:55;4.25;;;2.50;;
24637;SDS011;12773;50.162;8.548;2023-07-29T09:01:42;4.60;;;2.87;;
24637;SDS011;12773;50.162;8.548;2023-07-29T09:04:30;4.15;;;2.80;;
24637;SDS011;12773;50.162;8.548;2023-07-29T09:07:18;3.45;;;2.62;;
24637;SDS011;12773;50.162;8.548;2023-07-29T09:10:11;2.70;;;2.20;;
24637;SDS011;12773;50.162;8.548;2023-07-29T09:13:00;2.75;;;2.45;;
24637;SDS011;12773;50.162;8.548;2023-07-29T09:15:48;3.83;;;2.30;;
24637;SDS011;12773;50.162;8.548;2023-07-29T09:18:36;4.25;;;2.47;;
24637;SDS011;12773;50.162;8.548;2023-07-29T09:21:23;2.37;;;1.90;;
24637;SDS011;12773;50.162;8.548;2023-07-29T09:24:14;6.42;;;1.98;;
24637;SDS011;12773;50.162;8.548;2023-07-29T09:27:04;2.00;;;1.70;;
24637;SDS011;12773;50.162;8.548;2023-07-29T09:29:53;2.58;;;1.80;;
24637;SDS011;12773;50.162;8.548;2023-07-29T09:32:40;4.67;;;2.10;;
24637;SDS011;12773;50.162;8.548;2023-07-29T09:35:30;2.77;;;1.80;;
24637;SDS011;12773;50.162;8.548;2023-07-29T09:38:25;2.45;;;1.90;;
24637;SDS011;12773;50.162;8.548;2023-07-29T09:41:11;4.28;;;1.70;;
24637;SDS011;12773;50.162;8.548;2023-07-29T09:44:00;4.75;;;1.70;;
24637;SDS011;12773;50.162;8.548;2023-07-29T09:46:49;3.05;;;1.37;;
24637;SDS011;12773;50.162;8.548;2023-07-29T09:49:36;2.00;;;1.55;;
24637;SDS011;12773;50.162;8.548;2023-07-29T09:52:24;3.22;;;1.72;;
24637;SDS011;12773;50.162;8.548;2023-07-29T09:55:17;2.45;;;1.60;;
24637;SDS011;12773;50.162;8.548;2023-07-29T09:58:07;1.60;;;1.50;;
24637;SDS011;12773;50.162;8.548;2023-07-29T10:00:55;2.95;;;1.55;;
24637;SDS011;12773;50.162;8.548;2023-07-29T10:03:42;2.50;;;1.37;;
24637;SDS011;12773;50.162;8.548;2023-07-29T10:06:31;4.55;;;1.72;;
24637;SDS011;12773;50.162;8.548;2023-07-29T10:09:21;2.17;;;1.70;;
24637;SDS011;12773;50.162;8.548;2023-07-29T10:12:09;2.45;;;1.60;;
24637;SDS011;12773;50.162;8.548;2023-07-29T10:15:02;1.45;;;1.32;;
24637;SDS011;12773;50.162;8.548;2023-07-29T10:17:52;1.55;;;1.37;;
24637;SDS011;12773;50.162;8.548;2023-07-29T10:20:40;2.98;;;1.67;;
24637;SDS011;12773;50.162;8.548;2023-07-29T10:23:32;3.08;;;1.62;;
24637;SDS011;12773;50.162;8.548;2023-07-29T10:26:20;3.42;;;2.08;;
24637;SDS011;12773;50.162;8.548;2023-07-29T10:29:08;3.05;;;1.47;;
24637;SDS011;12773;50.162;8.548;2023-07-29T10:32:01;2.87;;;1.55;;
24637;SDS011;12773;50.162;8.548;2023-07-29T10:34:50;2.65;;;1.30;;
24637;SDS011;12773;50.162;8.548;2023-07-29T10:37:37;1.45;;;1.20;;
24637;SDS011;12773;50.162;8.548;2023-07-29T10:40:25;3.20;;;1.40;;
24637;SDS011;12773;50.162;8.548;2023-07-29T10:43:18;4.20;;;1.35;;
24637;SDS011;12773;50.162;8.548;2023-07-29T10:46:21;1.57;;;1.30;;
24637;SDS011;12773;50.162;8.548;2023-07-29T10:49:09;2.02;;;1.20;;
24637;SDS011;12773;50.162;8.548;2023-07-29T10:51:56;1.67;;;1.20;;
24637;SDS011;12773;50.162;8.548;2023-07-29T10:54:44;1.70;;;1.20;;
24637;SDS011;12773;50.162;8.548;2023-07-29T10:57:33;2.22;;;1.20;;
24637;SDS011;12773;50.162;8.548;2023-07-29T11:00:23;2.67;;;1.22;;
24637;SDS011;12773;50.162;8.548;2023-07-29T11:03:13;1.70;;;1.17;;
24637;SDS011;12773;50.162;8.548;2023-07-29T11:06:01;3.52;;;1.12;;
24637;SDS011;12773;50.162;8.548;2023-07-29T11:08:50;1.55;;;1.35;;
24637;SDS011;12773;50.162;8.548;2023-07-29T11:11:38;1.40;;;1.30;;
24637;SDS011;12773;50.162;8.548;2023-07-29T11:14:26;2.15;;;1.47;;
24637;SDS011;12773;50.162;8.548;2023-07-29T11:17:13;2.58;;;1.30;;
24637;SDS011;12773;50.162;8.548;2023-07-29T11:20:01;2.55;;;1.20;;
24637;SDS011;12773;50.162;8.548;2023-07-29T11:22:50;1.37;;;1.20;;
24637;SDS011;12773;50.162;8.548;2023-07-29T11:25:39;1.27;;;1.12;;
24637;SDS011;12773;50.162;8.548;2023-07-29T11:28:27;2.02;;;1.40;;
24637;SDS011;12773;50.162;8.548;2023-07-29T11:31:15;3.22;;;1.27;;
24637;SDS011;12773;50.162;8.548;2023-07-29T11:34:06;1.42;;;1.20;;
24637;SDS011;12773;50.162;8.548;2023-07-29T11:36:55;1.60;;;1.10;;
24637;SDS011;12773;50.162;8.548;2023-07-29T11:39:44;1.90;;;1.20;;
24637;SDS011;12773;50.162;8.548;2023-07-29T11:42:32;1.27;;;1.17;;
24637;SDS011;12773;50.162;8.548;2023-07-29T11:45:20;2.37;;;1.20;;
24637;SDS011;12773;50.162;8.548;2023-07-29T11:48:10;3.25;;;1.40;;
24637;SDS011;12773;50.162;8.548;2023-07-29T11:50:57;2.15;;;1.40;;
24637;SDS011;12773;50.162;8.548;2023-07-29T11:53:44;1.67;;;1.35;;
24637;SDS011;12773;50.162;8.548;2023-07-29T11:56:32;2.33;;;1.27;;
24637;SDS011;12773;50.162;8.548;2023-07-29T11:59:19;2.42;;;1.30;;
24637;SDS011;12773;50.162;8.548;2023-07-29T12:02:11;2.20;;;1.40;;
24637;SDS011;12773;50.162;8.548;2023-07-29T12:05:00;2.90;;;1.32;;
24637;SDS011;12773;50.162;8.548;2023-07-29T12:07:50;1.30;;;1.20;;
24637;SDS011;12773;50.162;8.548;2023-07-29T12:10:38;1.20;;;1.10;;
24637;SDS011;12773;50.162;8.548;2023-07-29T12:13:26;2.10;;;1.65;;
24637;SDS011;12773;50.162;8.548;2023-07-29T12:16:16;2.77;;;1.40;;
24637;SDS011;12773;50.162;8.548;2023-07-29T12:19:04;1.77;;;1.30;;
24637;SDS011;12773;50.162;8.548;2023-07-29T12:21:52;1.42;;;1.10;;
24637;SDS011;12773;50.162;8.548;2023-07-29T12:24:40;1.60;;;1.25;;
24637;SDS011;12773;50.162;8.548;2023-07-29T12:27:27;1.30;;;0.98;;
24637;SDS011;12773;50.162;8.548;2023-07-29T12:30:20;1.40;;;1.27;;
24637;SDS011;12773;50.162;8.548;2023-07-29T12:33:08;1.70;;;1.40;;
24637;SDS011;12773;50.162;8.548;2023-07-29T12:35:56;2.15;;;1.17;;
24637;SDS011;12773;50.162;8.548;2023-07-29T12:38:43;1.30;;;1.20;;
24637;SDS011;12773;50.162;8.548;2023-07-29T12:41:31;3.42;;;1.60;;
24637;SDS011;12773;50.162;8.548;2023-07-29T12:44:18;1.72;;;1.17;;
24637;SDS011;12773;50.162;8.548;2023-07-29T12:47:06;4.40;;;1.20;;
24637;SDS011;12773;50.162;8.548;2023-07-29T12:49:55;2.00;;;1.40;;
24637;SDS011;12773;50.162;8.548;2023-07-29T12:52:42;3.25;;;1.27;;
24637;SDS011;12773;50.162;8.548;2023-07-29T12:55:29;1.47;;;1.30;;
24637;SDS011;12773;50.162;8.548;2023-07-29T12:58:17;2.30;;;1.40;;
24637;SDS011;12773;50.162;8.548;2023-07-29T13:01:04;2.92;;;1.10;;
24637;SDS011;12773;50.162;8.548;2023-07-29T13:03:51;2.00;;;1.15;;
24637;SDS011;12773;50.162;8.548;2023-07-29T13:06:39;2.22;;;1.32;;
24637;SDS011;12773;50.162;8.548;2023-07-29T13:09:26;3.42;;;1.67;;
24637;SDS011;12773;50.162;8.548;2023-07-29T13:12:14;3.00;;;1.10;;
24637;SDS011;12773;50.162;8.548;2023-07-29T13:15:01;3.33;;;1.50;;
24637;SDS011;12773;50.162;8.548;2023-07-29T13:17:48;3.37;;;1.85;;
24637;SDS011;12773;50.162;8.548;2023-07-29T13:20:36;3.33;;;1.20;;
24637;SDS011;12773;50.162;8.548;2023-07-29T13:23:24;1.50;;;1.30;;
24637;SDS011;12773;50.162;8.548;2023-07-29T13:26:11;1.42;;;1.30;;
24637;SDS011;12773;50.162;8.548;2023-07-29T13:28:58;2.72;;;1.50;;
24637;SDS011;12773;50.162;8.548;2023-07-29T13:31:45;3.08;;;1.30;;
24637;SDS011;12773;50.162;8.548;2023-07-29T13:34:33;1.77;;;1.35;;
24637;SDS011;12773;50.162;8.548;2023-07-29T13:37:20;1.82;;;1.00;;
24637;SDS011;12773;50.162;8.548;2023-07-29T13:40:08;3.15;;;1.40;;
24637;SDS011;12773;50.162;8.548;2023-07-29T13:42:55;1.50;;;1.40;;
24637;SDS011;12773;50.162;8.548;2023-07-29T13:45:43;1.55;;;1.30;;
24637;SDS011;12773;50.162;8.548;2023-07-29T13:48:30;6.17;;;1.55;;
24637;SDS011;12773;50.162;8.548;2023-07-29T13:51:18;1.92;;;1.30;;
24637;SDS011;12773;50.162;8.548;2023-07-29T13:54:06;2.15;;;1.45;;
24637;SDS011;12773;50.162;8.548;2023-07-29T13:56:54;1.72;;;1.35;;
24637;SDS011;12773;50.162;8.548;2023-07-29T13:59:41;1.27;;;1.17;;
24637;SDS011;12773;50.162;8.548;2023-07-29T14:02:28;2.47;;;1.50;;
24637;SDS011;12773;50.162;8.548;2023-07-29T14:05:17;1.75;;;1.30;;
24637;SDS011;12773;50.162;8.548;2023-07-29T14:08:04;1.55;;;1.40;;
24637;SDS011;12773;50.162;8.548;2023-07-29T14:10:51;1.42;;;1.12;;
24637;SDS011;12773;50.162;8.548;2023-07-29T14:13:39;1.20;;;1.10;;
24637;SDS011;12773;50.162;8.548;2023-07-29T14:16:26;5.00;;;1.40;;
24637;SDS011;12773;50.162;8.548;2023-07-29T14:19:13;1.70;;;1.20;;
24637;SDS011;12773;50.162;8.548;2023-07-29T14:22:01;2.05;;;1.27;;
24637;SDS011;12773;50.162;8.548;2023-07-29T14:24:48;1.45;;;0.93;;
24637;SDS011;12773;50.162;8.548;2023-07-29T14:27:35;1.95;;;1.20;;
24637;SDS011;12773;50.162;8.548;2023-07-29T14:30:23;1.40;;;1.00;;
24637;SDS011;12773;50.162;8.548;2023-07-29T14:33:11;1.60;;;1.20;;
24637;SDS011;12773;50.162;8.548;2023-07-29T14:35:59;2.72;;;1.30;;
24637;SDS011;12773;50.162;8.548;2023-07-29T14:38:48;2.42;;;1.15;;
24637;SDS011;12773;50.162;8.548;2023-07-29T14:41:35;1.37;;;1.05;;
24637;SDS011;12773;50.162;8.548;2023-07-29T14:44:23;1.50;;;1.25;;
24637;SDS011;12773;50.162;8.548;2023-07-29T14:47:10;1.62;;;1.17;;
24637;SDS011;12773;50.162;8.548;2023-07-29T14:49:57;1.32;;;1.20;;
24637;SDS011;12773;50.162;8.548;2023-07-29T14:52:45;3.05;;;1.22;;
24637;SDS011;12773;50.162;8.548;2023-07-29T14:55:32;3.10;;;1.60;;
24637;SDS011;12773;50.162;8.548;2023-07-29T14:58:20;1.65;;;1.17;;
24637;SDS011;12773;50.162;8.548;2023-07-29T15:01:08;3.05;;;1.72;;
24637;SDS011;12773;50.162;8.548;2023-07-29T15:03:56;1.47;;;1.30;;
24637;SDS011;12773;50.162;8.548;2023-07-29T15:06:43;3.75;;;1.30;;
24637;SDS011;12773;50.162;8.548;2023-07-29T15:09:31;1.98;;;1.22;;
24637;SDS011;12773;50.162;8.548;2023-07-29T15:12:18;1.60;;;1.07;;
24637;SDS011;12773;50.162;8.548;2023-07-29T15:15:07;2.52;;;1.22;;
24637;SDS011;12773;50.162;8.548;2023-07-29T15:17:56;1.40;;;1.30;;
24637;SDS011;12773;50.162;8.548;2023-07-29T15:20:43;2.22;;;1.30;;
24637;SDS011;12773;50.162;8.548;2023-07-29T15:23:31;2.95;;;1.30;;
24637;SDS011;12773;50.162;8.548;2023-07-29T15:26:18;2.92;;;1.25;;
24637;SDS011;12773;50.162;8.548;2023-07-29T15:29:05;2.77;;;1.30;;
24637;SDS011;12773;50.162;8.548;2023-07-29T15:31:53;2.85;;;1.37;;
24637;SDS011;12773;50.162;8.548;2023-07-29T15:34:41;1.57;;;1.22;;
24637;SDS011;12773;50.162;8.548;2023-07-29T15:37:28;1.95;;;1.22;;
24637;SDS011;12773;50.162;8.548;2023-07-29T15:40:15;1.67;;;1.30;;
24637;SDS011;12773;50.162;8.548;2023-07-29T15:43:03;1.35;;;1.20;;
24637;SDS011;12773;50.162;8.548;2023-07-29T15:45:50;2.58;;;1.32;;
24637;SDS011;12773;50.162;8.548;2023-07-29T15:48:38;3.20;;;1.00;;
24637;SDS011;12773;50.162;8.548;2023-07-29T15:51:26;1.67;;;1.50;;
24637;SDS011;12773;50.162;8.548;2023-07-29T15:54:16;1.72;;;1.20;;
24637;SDS011;12773;50.162;8.548;2023-07-29T15:57:04;1.47;;;1.37;;
24637;SDS011;12773;50.162;8.548;2023-07-29T15:59:52;3.65;;;1.50;;
24637;SDS011;12773;50.162;8.548;2023-07-29T16:02:39;3.42;;;1.30;;
24637;SDS011;12773;50.162;8.548;2023-07-29T16:05:27;2.10;;;1.60;;
24637;SDS011;12773;50.162;8.548;2023-07-29T16:08:14;2.22;;;1.30;;
24637;SDS011;12773;50.162;8.548;2023-07-29T16:11:02;1.40;;;1.27;;
24637;SDS011;12773;50.162;8.548;2023-07-29T16:13:49;1.85;;;1.30;;
24637;SDS011;12773;50.162;8.548;2023-07-29T16:16:36;2.55;;;1.50;;
24637;SDS011;12773;50.162;8.548;2023-07-29T16:19:25;2.22;;;1.55;;
24637;SDS011;12773;50.162;8.548;2023-07-29T16:22:21;3.85;;;1.45;;
24637;SDS011;12773;50.162;8.548;2023-07-29T16:25:06;3.33;;;1.50;;
24637;SDS011;12773;50.162;8.548;2023-07-29T16:27:54;1.98;;;1.27;;
24637;SDS011;12773;50.162;8.548;2023-07-29T16:30:42;1.75;;;1.20;;
24637;SDS011;12773;50.162;8.548;2023-07-29T16:33:29;3.20;;;1.45;;
24637;SDS011;12773;50.162;8.548;2023-07-29T16:36:17;1.52;;;1.37;;
24637;SDS011;12773;50.162;8.548;2023-07-29T16:39:04;1.70;;;1.42;;
24637;SDS011;12773;50.162;8.548;2023-07-29T16:41:52;1.55;;;1.20;;